createdAt,value
2022-08-19T00:01:02.767Z,17.80
2022-08-19T00:03:29.558Z,17.80
2022-08-19T00:05:56.336Z,17.80
2022-08-19T00:08:23.299Z,17.80
2022-08-19T00:10:50.123Z,17.70
2022-08-19T00:13:16.848Z,17.70
2022-08-19T00:15:45.665Z,17.70
2022-08-19T00:18:12.411Z,17.70
2022-08-19T00:20:41.314Z,17.70
2022-08-19T00:23:08.063Z,17.70
2022-08-19T00:25:34.827Z,17.70
2022-08-19T00:28:01.600Z,17.70
2022-08-19T00:30:31.325Z,17.60
2022-08-19T00:32:58.701Z,17.60
2022-08-19T00:35:26.140Z,17.60
2022-08-19T00:37:52.914Z,17.60
2022-08-19T00:40:20.579Z,17.60
2022-08-19T00:42:47.663Z,17.60
2022-08-19T00:45:17.944Z,17.60
2022-08-19T00:47:45.230Z,17.60
2022-08-19T00:50:13.701Z,17.60
2022-08-19T00:52:45.464Z,17.50
2022-08-19T00:55:19.649Z,17.50
2022-08-19T00:57:52.779Z,17.50
2022-08-19T01:00:20.105Z,17.50
2022-08-19T01:02:47.013Z,17.50
2022-08-19T01:05:19.633Z,17.50
2022-08-19T01:07:46.528Z,17.50
2022-08-19T01:10:16.007Z,17.40
2022-08-19T01:12:43.391Z,17.40
2022-08-19T01:15:11.874Z,17.40
2022-08-19T01:17:39.475Z,17.40
2022-08-19T01:20:08.509Z,17.30
2022-08-19T01:22:42.859Z,17.30
2022-08-19T01:25:14.748Z,17.30
2022-08-19T01:27:43.172Z,17.30
2022-08-19T01:30:12.482Z,17.30
2022-08-19T01:32:39.327Z,17.30
2022-08-19T01:35:06.226Z,17.30
2022-08-19T01:37:42.761Z,17.30
2022-08-19T01:40:10.178Z,17.30
2022-08-19T01:42:37.087Z,17.30
2022-08-19T01:45:04.617Z,17.30
2022-08-19T01:47:31.499Z,17.30
2022-08-19T01:49:59.263Z,17.30
2022-08-19T01:52:26.080Z,17.30
2022-08-19T01:54:52.866Z,17.30
2022-08-19T01:57:19.756Z,17.30
2022-08-19T01:59:46.796Z,17.30
2022-08-19T02:02:13.619Z,17.30
2022-08-19T02:04:40.885Z,17.20
2022-08-19T02:07:09.019Z,17.20
2022-08-19T02:09:36.436Z,17.20
2022-08-19T02:12:03.729Z,17.20
2022-08-19T02:14:30.560Z,17.20
2022-08-19T02:16:57.317Z,17.20
2022-08-19T02:19:24.080Z,17.20
2022-08-19T02:21:50.988Z,17.20
2022-08-19T02:24:17.955Z,17.30
2022-08-19T02:26:44.808Z,17.30
2022-08-19T02:29:11.588Z,17.20
2022-08-19T02:31:38.407Z,17.20
2022-08-19T02:34:05.240Z,17.20
2022-08-19T02:36:32.107Z,17.20
2022-08-19T02:38:58.929Z,17.20
2022-08-19T02:41:28.042Z,17.20
2022-08-19T02:44:29.915Z,17.20
2022-08-19T02:46:44.361Z,17.10
2022-08-19T02:49:11.160Z,17.10
2022-08-19T02:51:39.643Z,17.00
2022-08-19T02:54:07.393Z,17.00
2022-08-19T02:56:37.777Z,16.90
2022-08-19T02:59:11.090Z,17.00
2022-08-19T03:01:40.474Z,16.90
2022-08-19T03:04:07.805Z,16.90
2022-08-19T03:06:37.332Z,16.90
2022-08-19T03:09:04.231Z,16.80
2022-08-19T03:11:32.401Z,16.80
2022-08-19T03:13:59.893Z,16.80
2022-08-19T03:16:28.008Z,16.80
2022-08-19T03:18:55.379Z,16.80
2022-08-19T03:21:24.899Z,16.80
2022-08-19T03:23:54.943Z,16.80
2022-08-19T03:26:22.051Z,16.80
2022-08-19T03:28:51.589Z,16.80
2022-08-19T03:31:45.202Z,16.80
2022-08-19T03:34:14.530Z,16.80
2022-08-19T03:36:41.803Z,16.80
2022-08-19T03:39:09.550Z,16.70
2022-08-19T03:41:45.465Z,16.70
2022-08-19T03:44:22.708Z,16.70
2022-08-19T03:46:51.669Z,16.70
2022-08-19T03:49:18.786Z,16.80
2022-08-19T03:51:47.256Z,16.80
2022-08-19T03:54:15.333Z,16.80
2022-08-19T03:56:43.059Z,16.80
2022-08-19T03:59:11.760Z,16.80
2022-08-19T04:01:38.602Z,16.70
2022-08-19T04:04:05.879Z,16.70
2022-08-19T04:06:35.497Z,16.70
2022-08-19T04:09:06.862Z,16.70
2022-08-19T04:11:43.734Z,16.60
2022-08-19T04:14:19.384Z,16.60
2022-08-19T04:16:47.323Z,16.70
2022-08-19T04:19:14.733Z,16.70
2022-08-19T04:21:43.708Z,16.70
2022-08-19T04:24:10.552Z,16.70
2022-08-19T04:26:38.203Z,16.70
2022-08-19T04:29:10.435Z,16.70
2022-08-19T04:31:39.240Z,16.70
2022-08-19T04:34:07.230Z,16.70
2022-08-19T04:36:35.635Z,16.70
2022-08-19T04:39:04.774Z,16.70
2022-08-19T04:41:50.220Z,16.70
2022-08-19T04:44:20.077Z,16.80
2022-08-19T04:46:50.889Z,16.70
2022-08-19T04:49:20.022Z,16.70
2022-08-19T04:51:49.824Z,16.60
2022-08-19T04:54:23.970Z,16.60
2022-08-19T04:57:07.548Z,16.60
2022-08-19T04:59:34.675Z,16.70
2022-08-19T05:02:01.514Z,16.70
2022-08-19T05:04:32.739Z,16.70
2022-08-19T05:07:01.058Z,16.70
2022-08-19T05:09:33.081Z,16.80
2022-08-19T05:12:16.489Z,16.80
2022-08-19T05:14:43.649Z,16.90
2022-08-19T05:20:16.276Z,16.90
2022-08-19T05:22:44.662Z,17.00
2022-08-19T05:25:13.890Z,17.10
2022-08-19T05:27:42.218Z,17.10
2022-08-19T05:30:09.415Z,17.20
2022-08-19T05:32:36.345Z,17.20
2022-08-19T05:35:03.644Z,17.30
2022-08-19T05:37:30.506Z,17.40
2022-08-19T05:39:57.505Z,17.50
2022-08-19T05:42:24.866Z,17.60
2022-08-19T05:44:52.171Z,17.70
2022-08-19T05:47:22.306Z,17.70
2022-08-19T05:49:50.954Z,17.80
2022-08-19T05:52:18.819Z,17.90
2022-08-19T05:54:51.210Z,17.90
2022-08-19T05:57:19.842Z,17.90
2022-08-19T05:59:49.168Z,18.00
2022-08-19T06:02:16.193Z,18.00
2022-08-19T06:04:45.851Z,18.10
2022-08-19T06:07:13.209Z,18.20
2022-08-19T06:09:40.861Z,18.30
2022-08-19T06:12:08.276Z,18.40
2022-08-19T06:14:40.158Z,18.50
2022-08-19T06:17:09.365Z,18.70
2022-08-19T06:19:40.764Z,18.90
2022-08-19T06:22:08.397Z,19.00
2022-08-19T06:24:36.400Z,19.10
2022-08-19T06:27:06.505Z,19.30
2022-08-19T06:29:34.436Z,19.40
2022-08-19T06:32:03.511Z,19.50
2022-08-19T06:34:31.849Z,19.70
2022-08-19T06:37:03.738Z,19.90
2022-08-19T06:39:32.642Z,20.00
2022-08-19T06:42:00.629Z,20.30
2022-08-19T06:44:29.309Z,20.30
2022-08-19T06:46:58.742Z,20.40
2022-08-19T06:49:29.761Z,20.50
2022-08-19T06:51:59.751Z,20.50
2022-08-19T06:54:33.253Z,20.50
2022-08-19T06:57:04.940Z,20.50
2022-08-19T06:59:33.518Z,20.40
2022-08-19T07:02:03.190Z,20.30
2022-08-19T07:04:34.793Z,20.30
2022-08-19T07:07:20.064Z,20.20
2022-08-19T07:09:55.348Z,20.20
2022-08-19T07:12:33.888Z,20.20
2022-08-19T07:15:04.695Z,20.20
2022-08-19T07:17:34.704Z,20.30
2022-08-19T07:20:05.638Z,20.30
2022-08-19T07:22:43.203Z,20.40
2022-08-19T07:25:10.916Z,20.50
2022-08-19T07:27:39.819Z,20.60
2022-08-19T07:30:11.734Z,20.70
2022-08-19T07:32:39.481Z,20.80
2022-08-19T07:35:07.238Z,20.80
2022-08-19T07:37:36.518Z,20.90
2022-08-19T07:40:04.958Z,21.00
2022-08-19T07:42:31.908Z,21.10
2022-08-19T07:44:59.542Z,21.20
2022-08-19T07:47:48.288Z,21.20
2022-08-19T07:50:15.792Z,21.30
2022-08-19T07:52:45.203Z,21.40
2022-08-19T07:55:41.839Z,21.50
2022-08-19T07:58:03.299Z,21.50
2022-08-19T08:00:31.706Z,21.70
2022-08-19T08:02:58.541Z,21.70
2022-08-19T08:05:44.397Z,21.80
2022-08-19T08:08:32.063Z,21.90
2022-08-19T08:10:59.902Z,22.00
2022-08-19T08:13:28.113Z,22.10
2022-08-19T08:15:57.107Z,22.20
2022-08-19T08:18:30.421Z,22.30
2022-08-19T08:20:58.827Z,22.30
2022-08-19T08:23:27.066Z,22.40
2022-08-19T08:25:57.669Z,22.60
2022-08-19T08:28:29.533Z,22.70
2022-08-19T08:30:57.640Z,22.70
2022-08-19T08:33:28.484Z,22.80
2022-08-19T08:36:08.415Z,22.90
2022-08-19T08:38:42.742Z,23.00
2022-08-19T08:41:32.726Z,23.10
2022-08-19T08:43:59.644Z,23.20
2022-08-19T08:46:35.400Z,23.30
2022-08-19T08:49:08.234Z,23.40
2022-08-19T08:51:38.077Z,23.50
2022-08-19T08:54:07.670Z,23.60
2022-08-19T08:56:38.810Z,23.70
2022-08-19T08:59:09.409Z,23.80
2022-08-19T09:01:37.124Z,23.50
2022-08-19T09:04:06.077Z,23.50
2022-08-19T09:06:52.897Z,23.40
2022-08-19T09:09:23.192Z,23.40
2022-08-19T09:12:06.702Z,23.40
2022-08-19T09:14:49.883Z,23.40
2022-08-19T09:17:18.209Z,23.80
2022-08-19T09:19:51.921Z,24.10
2022-08-19T09:22:25.618Z,24.30
2022-08-19T09:24:55.594Z,24.40
2022-08-19T09:27:42.715Z,24.50
2022-08-19T09:30:17.119Z,24.60
2022-08-19T09:32:46.241Z,24.80
2022-08-19T09:35:14.167Z,25.00
2022-08-19T09:37:43.690Z,25.20
2022-08-19T09:40:12.287Z,25.40
2022-08-19T09:42:39.159Z,25.30
2022-08-19T09:45:18.295Z,25.40
2022-08-19T09:47:45.410Z,25.70
2022-08-19T09:50:16.486Z,26.20
2022-08-19T09:52:56.922Z,26.70
2022-08-19T09:55:31.476Z,27.10
2022-08-19T09:58:03.051Z,27.60
2022-08-19T10:00:31.966Z,27.90
2022-08-19T10:02:59.050Z,28.20
2022-08-19T10:05:44.807Z,28.60
2022-08-19T10:08:17.801Z,29.00
2022-08-19T10:10:46.204Z,29.10
2022-08-19T10:13:18.749Z,29.20
2022-08-19T10:15:47.971Z,29.40
2022-08-19T10:18:19.333Z,29.60
2022-08-19T10:20:52.736Z,29.70
2022-08-19T10:23:21.417Z,29.80
2022-08-19T10:25:49.467Z,30.00
2022-08-19T10:28:19.183Z,30.30
2022-08-19T10:30:47.966Z,30.60
2022-08-19T10:33:38.544Z,31.00
2022-08-19T10:36:10.729Z,31.50
2022-08-19T10:38:38.917Z,31.80
2022-08-19T10:41:14.220Z,32.00
2022-08-19T10:43:42.479Z,31.50
2022-08-19T10:46:14.130Z,31.40
2022-08-19T10:48:44.969Z,30.90
2022-08-19T10:51:30.986Z,30.60
2022-08-19T10:53:59.082Z,30.50
2022-08-19T10:56:45.702Z,30.30
2022-08-19T10:59:14.793Z,30.30
2022-08-19T11:01:43.883Z,30.70
2022-08-19T11:04:12.243Z,31.00
2022-08-19T11:06:39.503Z,31.30
2022-08-19T11:09:06.927Z,31.70
2022-08-19T11:11:34.213Z,31.90
2022-08-19T11:14:07.296Z,31.70
2022-08-19T11:16:34.124Z,31.10
2022-08-19T11:19:01.829Z,30.60
2022-08-19T11:21:33.975Z,30.70
2022-08-19T11:24:13.339Z,31.10
2022-08-19T11:26:41.063Z,31.50
2022-08-19T11:29:13.853Z,31.90
2022-08-19T11:31:43.973Z,32.00
2022-08-19T11:34:14.271Z,32.00
2022-08-19T11:36:43.930Z,32.20
2022-08-19T11:39:12.551Z,32.50
2022-08-19T11:41:39.527Z,32.10
2022-08-19T11:44:08.638Z,31.40
2022-08-19T11:46:37.049Z,30.60
2022-08-19T11:49:04.772Z,29.90
2022-08-19T11:51:32.419Z,29.30
2022-08-19T11:53:59.915Z,28.90
2022-08-19T11:56:29.420Z,28.70
2022-08-19T11:58:57.769Z,28.40
2022-08-19T12:01:25.760Z,28.20
2022-08-19T12:03:53.749Z,28.10
2022-08-19T12:06:26.527Z,28.20
2022-08-19T12:08:53.524Z,28.20
2022-08-19T12:11:20.937Z,28.20
2022-08-19T12:13:48.655Z,28.10
2022-08-19T12:16:17.244Z,28.00
2022-08-19T12:18:47.103Z,28.00
2022-08-19T12:21:15.674Z,27.90
2022-08-19T12:23:44.146Z,27.80
2022-08-19T12:26:12.306Z,27.80
2022-08-19T12:28:39.742Z,27.90
2022-08-19T12:31:07.311Z,28.10
2022-08-19T12:33:35.165Z,28.20
2022-08-19T12:36:05.079Z,28.60
2022-08-19T12:38:33.226Z,28.80
2022-08-19T12:41:00.495Z,28.90
2022-08-19T12:43:28.263Z,29.00
2022-08-19T12:45:55.152Z,29.20
2022-08-19T12:48:33.150Z,29.60
2022-08-19T12:51:06.604Z,30.00
2022-08-19T12:53:33.506Z,30.20
2022-08-19T12:56:01.710Z,30.30
2022-08-19T12:58:29.968Z,30.10
2022-08-19T13:00:56.880Z,29.90
2022-08-19T13:03:29.925Z,29.80
2022-08-19T13:05:57.323Z,29.70
2022-08-19T13:08:24.365Z,29.80
2022-08-19T13:10:51.772Z,29.80
2022-08-19T13:13:18.848Z,29.80
2022-08-19T13:15:46.254Z,29.70
2022-08-19T13:18:13.787Z,29.50
2022-08-19T13:20:52.461Z,29.20
2022-08-19T13:23:20.374Z,29.10
2022-08-19T13:25:57.982Z,29.50
2022-08-19T13:28:28.975Z,30.10
2022-08-19T13:31:14.469Z,30.00
2022-08-19T13:33:41.361Z,30.00
2022-08-19T13:36:08.738Z,29.70
2022-08-19T13:38:35.977Z,29.60
2022-08-19T13:41:10.967Z,29.20
2022-08-19T13:43:40.372Z,28.90
2022-08-19T13:46:11.531Z,28.70
2022-08-19T13:48:38.385Z,28.40
2022-08-19T13:51:06.861Z,28.20
2022-08-19T13:53:33.710Z,27.90
2022-08-19T13:56:00.624Z,27.70
2022-08-19T13:58:27.411Z,27.60
2022-08-19T14:00:54.359Z,27.30
2022-08-19T14:03:21.268Z,27.20
2022-08-19T14:05:48.131Z,27.00
2022-08-19T14:08:15.204Z,26.80
2022-08-19T14:10:43.483Z,26.60
2022-08-19T14:13:10.243Z,26.50
2022-08-19T14:15:38.260Z,26.50
2022-08-19T14:18:05.101Z,26.50
2022-08-19T14:20:34.400Z,26.40
2022-08-19T14:23:01.154Z,26.40
2022-08-19T14:25:30.543Z,26.30
2022-08-19T14:27:58.014Z,26.20
2022-08-19T14:30:29.322Z,26.20
2022-08-19T14:32:57.211Z,26.10
2022-08-19T14:35:24.079Z,26.10
2022-08-19T14:37:51.455Z,26.10
2022-08-19T14:40:22.235Z,26.20
2022-08-19T14:42:49.498Z,26.30
2022-08-19T14:45:16.380Z,26.40
2022-08-19T14:47:43.259Z,26.40
2022-08-19T14:50:18.109Z,26.40
2022-08-19T14:52:46.397Z,26.40
2022-08-19T14:55:13.201Z,26.40
2022-08-19T14:57:41.628Z,26.50
2022-08-19T15:00:12.691Z,26.50
2022-08-19T15:02:39.984Z,26.60
2022-08-19T15:05:07.114Z,26.70
2022-08-19T15:10:02.027Z,27.30
2022-08-19T15:12:28.903Z,27.80
2022-08-19T15:14:56.730Z,28.60
2022-08-19T15:17:45.954Z,29.00
2022-08-19T15:20:13.600Z,28.90
2022-08-19T15:22:41.303Z,28.20
2022-08-19T15:25:11.739Z,27.70
2022-08-19T15:27:40.602Z,27.30
2022-08-19T15:30:11.923Z,26.90
2022-08-19T15:32:39.861Z,26.50
2022-08-19T15:35:07.993Z,26.30
2022-08-19T15:37:37.234Z,26.20
2022-08-19T15:40:07.572Z,26.10
2022-08-19T15:42:37.417Z,26.00
2022-08-19T15:45:08.070Z,26.00
2022-08-19T15:47:35.753Z,25.90
2022-08-19T15:50:11.118Z,25.90
2022-08-19T15:52:55.758Z,25.80
2022-08-19T15:55:32.604Z,25.80
2022-08-19T15:58:31.516Z,25.90
2022-08-19T16:01:27.140Z,26.10
2022-08-19T16:04:15.932Z,26.40
2022-08-19T16:06:48.863Z,26.40
2022-08-19T16:09:17.234Z,26.20
2022-08-19T16:11:46.043Z,25.80
2022-08-19T16:14:16.010Z,25.60
2022-08-19T16:16:47.275Z,25.40
2022-08-19T16:19:16.801Z,25.40
2022-08-19T16:21:46.377Z,25.30
2022-08-19T16:24:14.902Z,25.30
2022-08-19T16:26:43.299Z,25.30
2022-08-19T16:29:12.927Z,25.20
2022-08-19T16:31:43.459Z,25.20
2022-08-19T16:34:10.948Z,25.10
2022-08-19T16:36:42.062Z,25.00
2022-08-19T16:39:14.495Z,24.90
2022-08-19T16:41:43.011Z,24.90
2022-08-19T16:44:12.680Z,24.90
2022-08-19T16:46:41.650Z,24.80
2022-08-19T16:49:11.191Z,24.80
2022-08-19T16:51:39.019Z,24.70
2022-08-19T16:54:06.592Z,25.00
2022-08-19T16:56:33.657Z,24.80
2022-08-19T16:59:00.575Z,24.60
2022-08-19T17:01:27.855Z,24.40
2022-08-19T17:03:55.282Z,24.30
2022-08-19T17:06:26.068Z,24.20
2022-08-19T17:08:54.421Z,24.10
2022-08-19T17:11:22.750Z,24.00
2022-08-19T17:13:50.964Z,23.90
2022-08-19T17:16:19.864Z,23.80
2022-08-19T17:18:46.705Z,23.80
2022-08-19T17:21:13.522Z,23.70
2022-08-19T17:23:43.558Z,23.60
2022-08-19T17:26:17.075Z,23.50
2022-08-19T17:28:48.014Z,23.40
2022-08-19T17:31:15.323Z,23.20
2022-08-19T17:33:42.157Z,23.00
2022-08-19T17:36:09.145Z,22.90
2022-08-19T17:38:37.360Z,22.80
2022-08-19T17:41:05.489Z,22.70
2022-08-19T17:43:33.939Z,22.60
2022-08-19T17:46:03.954Z,22.60
2022-08-19T17:48:32.429Z,22.50
2022-08-19T17:51:00.467Z,22.40
2022-08-19T17:53:27.228Z,22.30
2022-08-19T17:55:54.055Z,22.20
2022-08-19T17:58:22.521Z,22.20
2022-08-19T18:00:54.057Z,22.10
2022-08-19T18:03:21.264Z,22.00
2022-08-19T18:05:48.155Z,22.00
2022-08-19T18:08:15.282Z,21.90
2022-08-19T18:10:42.178Z,21.90
2022-08-19T18:13:17.329Z,21.90
2022-08-19T18:15:44.703Z,21.80
2022-08-19T18:18:14.903Z,21.80
2022-08-19T18:20:42.738Z,21.80
2022-08-19T18:23:43.791Z,21.80
2022-08-19T18:25:56.520Z,21.80
2022-08-19T18:28:24.766Z,21.80
2022-08-19T18:30:51.869Z,21.90
2022-08-19T18:33:18.823Z,21.80
2022-08-19T18:35:46.842Z,21.90
2022-08-19T18:38:33.194Z,21.80
2022-08-19T18:41:18.858Z,21.80
2022-08-19T18:44:04.099Z,21.80
2022-08-19T18:46:49.606Z,21.80
2022-08-19T18:49:20.148Z,21.80
2022-08-19T18:51:46.956Z,21.90
2022-08-19T18:54:14.261Z,21.80
2022-08-19T18:56:44.686Z,21.80
2022-08-19T18:59:14.851Z,21.80
2022-08-19T19:01:50.533Z,21.80
2022-08-19T19:04:18.259Z,21.70
2022-08-19T19:06:45.435Z,21.70
2022-08-19T19:09:17.586Z,21.70
2022-08-19T19:11:46.633Z,21.60
2022-08-19T19:14:27.606Z,21.60
2022-08-19T19:17:03.556Z,21.60
2022-08-19T19:19:30.850Z,21.50
2022-08-19T19:21:58.760Z,21.50
2022-08-19T19:24:30.947Z,21.40
2022-08-19T19:26:59.727Z,21.40
2022-08-19T19:29:27.042Z,21.40
2022-08-19T19:31:56.038Z,21.30
2022-08-19T19:34:29.935Z,21.30
2022-08-19T19:36:56.981Z,21.30
2022-08-19T19:39:41.080Z,21.20
2022-08-19T19:42:13.708Z,21.20
2022-08-19T19:44:49.300Z,21.20
2022-08-19T19:47:17.512Z,21.20
2022-08-19T19:52:38.355Z,21.10
2022-08-19T19:55:05.395Z,21.10
2022-08-19T19:57:32.246Z,21.10
2022-08-19T20:00:00.789Z,21.10
2022-08-19T20:02:27.810Z,21.00
2022-08-19T20:04:57.145Z,21.00
2022-08-19T20:07:43.904Z,21.00
2022-08-19T20:10:10.818Z,21.00
2022-08-19T20:12:39.194Z,20.90
2022-08-19T20:15:06.766Z,20.90
2022-08-19T20:17:33.676Z,20.90
2022-08-19T20:20:00.564Z,20.90
2022-08-19T20:22:27.339Z,20.90
2022-08-19T20:25:01.305Z,20.90
2022-08-19T20:27:29.306Z,20.90
2022-08-19T20:29:58.312Z,20.90
2022-08-19T20:32:25.239Z,20.90
2022-08-19T20:34:52.062Z,20.90
2022-08-19T20:37:18.855Z,20.90
2022-08-19T20:39:45.705Z,20.90
2022-08-19T20:42:13.269Z,20.90
2022-08-19T20:44:40.092Z,20.90
2022-08-19T20:47:06.874Z,20.90
2022-08-19T20:49:35.211Z,20.90
2022-08-19T20:52:03.841Z,20.90
2022-08-19T20:54:31.011Z,20.90
2022-08-19T20:56:57.886Z,20.80
2022-08-19T20:59:25.809Z,20.80
2022-08-19T21:01:53.424Z,20.80
2022-08-19T21:04:21.422Z,20.80
2022-08-19T21:06:49.270Z,20.70
2022-08-19T21:09:16.154Z,20.70
2022-08-19T21:11:44.157Z,20.70
2022-08-19T21:14:11.142Z,20.70
2022-08-19T21:16:37.924Z,20.70
2022-08-19T21:19:04.915Z,20.70
2022-08-19T21:21:33.091Z,20.60
2022-08-19T21:23:59.937Z,20.70
2022-08-19T21:26:26.829Z,20.70
2022-08-19T21:28:53.612Z,20.70
2022-08-19T21:31:21.090Z,20.70
2022-08-19T21:33:50.434Z,20.70
2022-08-19T21:36:20.396Z,20.60
2022-08-19T21:38:47.217Z,20.60
2022-08-19T21:41:14.055Z,20.60
2022-08-19T21:43:40.859Z,20.60
2022-08-19T21:46:08.965Z,20.60
2022-08-19T21:48:36.381Z,20.60
2022-08-19T21:51:03.329Z,20.60
2022-08-19T21:53:34.314Z,20.60
2022-08-19T21:56:02.549Z,20.60
2022-08-19T21:58:30.652Z,20.60
